Aviation Digital Data Service (ADDS)

Output produced by METARs form (0730 UTC 22 August 2017)
found at http://aviationweather.gov/adds/metars/
 
KFKL 220520Z 2206/2306 18006KT P6SM BKN250 
     FM221700 22014G23KT P6SM VCTS BKN035CB 
     FM221900 22014G24KT 5SM -SHRA VCTS OVC025CB 
     FM230100 25010KT P6SM BKN050 AMD LTD TO CLD VIS AND WIND